Cumberland, Washington
Current Conditions -  °F | °C
As of 9:56 AM on Friday 28 Nov 2014 (Local Time) from KRNT Reporting Station
Moderate Rain Moderate Rain  
Wind Chill: 41°   Ceiling: 600
Heat Index: 47°   Visibility: 1.7mi
Dew Point: 46°   Wind: 15mph
Humidity: 97%   Direction: 320°NW
Pressure: 29.53"   Gusts: 23mph
Location:  47.1782°N, 121.641°W
Report Text: KRNT 281756Z 32013G20KT 1 3/4SM RA BR BKN006 BKN011 OVC025 08/08 A2953 RMK AO2 PRESRR P0003 T00830078
Loading
Personal Weather Stations






























Interactive Weather Map New forecast layout! Learn more

10-Day Weather Forecast

Advertisements
Track Severe Weather on mobile